sensor_id;sensor_type;location;lat;lon;timestamp;temperature;humidity
11838;DHT22;5978;51.020;6.764;2023-05-17T00:01:43;10.40;99.90
11838;DHT22;5978;51.020;6.764;2023-05-17T00:04:09;10.40;99.90
11838;DHT22;5978;51.020;6.764;2023-05-17T00:06:35;10.40;99.90
11838;DHT22;5978;51.020;6.764;2023-05-17T00:09:01;10.30;99.90
11838;DHT22;5978;51.020;6.764;2023-05-17T00:11:27;10.30;99.90
11838;DHT22;5978;51.020;6.764;2023-05-17T00:13:53;10.30;99.90
11838;DHT22;5978;51.020;6.764;2023-05-17T00:16:19;10.30;99.90
11838;DHT22;5978;51.020;6.764;2023-05-17T00:18:44;10.30;99.90
11838;DHT22;5978;51.020;6.764;2023-05-17T00:21:10;10.20;99.90
11838;DHT22;5978;51.020;6.764;2023-05-17T00:23:36;10.10;99.90
11838;DHT22;5978;51.020;6.764;2023-05-17T00:26:01;10.10;99.90
11838;DHT22;5978;51.020;6.764;2023-05-17T00:28:27;10.00;99.90
11838;DHT22;5978;51.020;6.764;2023-05-17T00:30:53;10.00;99.90
11838;DHT22;5978;51.020;6.764;2023-05-17T00:33:18;10.10;99.90
11838;DHT22;5978;51.020;6.764;2023-05-17T00:35:44;10.00;99.90
11838;DHT22;5978;51.020;6.764;2023-05-17T00:38:10;10.00;99.90
11838;DHT22;5978;51.020;6.764;2023-05-17T00:40:35;10.10;99.90
11838;DHT22;5978;51.020;6.764;2023-05-17T00:43:01;10.00;99.90
11838;DHT22;5978;51.020;6.764;2023-05-17T00:45:27;10.00;99.90
11838;DHT22;5978;51.020;6.764;2023-05-17T00:47:52;10.00;99.90
11838;DHT22;5978;51.020;6.764;2023-05-17T00:50:18;9.90;99.90
11838;DHT22;5978;51.020;6.764;2023-05-17T00:52:45;9.90;99.90
11838;DHT22;5978;51.020;6.764;2023-05-17T00:55:11;9.90;99.90
11838;DHT22;5978;51.020;6.764;2023-05-17T00:57:37;9.90;99.90
11838;DHT22;5978;51.020;6.764;2023-05-17T01:00:03;9.80;99.90
11838;DHT22;5978;51.020;6.764;2023-05-17T01:02:29;9.80;99.90
11838;DHT22;5978;51.020;6.764;2023-05-17T01:04:56;9.80;99.90
11838;DHT22;5978;51.020;6.764;2023-05-17T01:07:22;9.70;99.90
11838;DHT22;5978;51.020;6.764;2023-05-17T01:09:48;9.70;99.90
11838;DHT22;5978;51.020;6.764;2023-05-17T01:15:14;9.70;99.90
11838;DHT22;5978;51.020;6.764;2023-05-17T01:17:52;9.60;99.90
11838;DHT22;5978;51.020;6.764;2023-05-17T01:20:33;9.60;99.90
11838;DHT22;5978;51.020;6.764;2023-05-17T01:26:09;9.70;99.90
11838;DHT22;5978;51.020;6.764;2023-05-17T01:28:39;9.70;99.90
11838;DHT22;5978;51.020;6.764;2023-05-17T01:31:07;9.60;99.90
11838;DHT22;5978;51.020;6.764;2023-05-17T01:33:33;9.60;99.90
11838;DHT22;5978;51.020;6.764;2023-05-17T01:35:59;9.60;99.90
11838;DHT22;5978;51.020;6.764;2023-05-17T01:38:25;9.60;99.90
11838;DHT22;5978;51.020;6.764;2023-05-17T01:41:56;9.60;99.90
11838;DHT22;5978;51.020;6.764;2023-05-17T01:44:00;9.60;99.90
11838;DHT22;5978;51.020;6.764;2023-05-17T01:46:32;9.60;99.90
11838;DHT22;5978;51.020;6.764;2023-05-17T01:49:29;9.50;99.90
11838;DHT22;5978;51.020;6.764;2023-05-17T01:54:59;9.40;99.90
11838;DHT22;5978;51.020;6.764;2023-05-17T01:57:28;9.40;99.90
11838;DHT22;5978;51.020;6.764;2023-05-17T01:59:59;9.40;99.90
11838;DHT22;5978;51.020;6.764;2023-05-17T02:02:25;9.30;99.90
11838;DHT22;5978;51.020;6.764;2023-05-17T02:04:51;9.30;99.90
11838;DHT22;5978;51.020;6.764;2023-05-17T02:07:17;9.20;99.90
11838;DHT22;5978;51.020;6.764;2023-05-17T02:09:42;9.20;99.90
11838;DHT22;5978;51.020;6.764;2023-05-17T02:12:08;9.20;99.90
11838;DHT22;5978;51.020;6.764;2023-05-17T02:14:34;9.30;99.90
11838;DHT22;5978;51.020;6.764;2023-05-17T02:16:59;9.20;99.90
11838;DHT22;5978;51.020;6.764;2023-05-17T02:19:25;9.20;99.90
11838;DHT22;5978;51.020;6.764;2023-05-17T02:21:51;9.10;99.90
11838;DHT22;5978;51.020;6.764;2023-05-17T02:24:16;9.10;99.90
11838;DHT22;5978;51.020;6.764;2023-05-17T02:26:42;9.00;99.90
11838;DHT22;5978;51.020;6.764;2023-05-17T02:29:08;9.00;99.90
11838;DHT22;5978;51.020;6.764;2023-05-17T02:31:35;9.10;99.90
11838;DHT22;5978;51.020;6.764;2023-05-17T02:34:01;9.10;99.90
11838;DHT22;5978;51.020;6.764;2023-05-17T02:36:27;9.10;99.90
11838;DHT22;5978;51.020;6.764;2023-05-17T02:38:52;9.10;99.90
11838;DHT22;5978;51.020;6.764;2023-05-17T02:41:18;9.10;99.90
11838;DHT22;5978;51.020;6.764;2023-05-17T02:43:43;9.10;99.90
11838;DHT22;5978;51.020;6.764;2023-05-17T02:46:09;9.10;99.90
11838;DHT22;5978;51.020;6.764;2023-05-17T02:48:35;9.10;99.90
11838;DHT22;5978;51.020;6.764;2023-05-17T02:51:00;9.00;99.90
11838;DHT22;5978;51.020;6.764;2023-05-17T02:53:26;9.00;99.90
11838;DHT22;5978;51.020;6.764;2023-05-17T02:55:52;9.00;99.90
11838;DHT22;5978;51.020;6.764;2023-05-17T02:58:17;9.00;99.90
11838;DHT22;5978;51.020;6.764;2023-05-17T03:00:46;9.00;99.90
11838;DHT22;5978;51.020;6.764;2023-05-17T03:03:12;8.90;99.90
11838;DHT22;5978;51.020;6.764;2023-05-17T03:05:38;9.00;99.90
11838;DHT22;5978;51.020;6.764;2023-05-17T03:08:03;8.90;99.90
11838;DHT22;5978;51.020;6.764;2023-05-17T03:10:29;8.90;99.90
11838;DHT22;5978;51.020;6.764;2023-05-17T03:12:55;8.90;99.90
11838;DHT22;5978;51.020;6.764;2023-05-17T03:15:20;8.80;99.90
11838;DHT22;5978;51.020;6.764;2023-05-17T03:17:46;8.80;99.90
11838;DHT22;5978;51.020;6.764;2023-05-17T03:20:11;8.80;99.90
11838;DHT22;5978;51.020;6.764;2023-05-17T03:22:37;8.90;99.90
11838;DHT22;5978;51.020;6.764;2023-05-17T03:25:03;8.90;99.90
11838;DHT22;5978;51.020;6.764;2023-05-17T03:27:30;8.80;99.90
11838;DHT22;5978;51.020;6.764;2023-05-17T03:29:56;8.80;99.90
11838;DHT22;5978;51.020;6.764;2023-05-17T03:32:22;8.80;99.90
11838;DHT22;5978;51.020;6.764;2023-05-17T03:34:47;8.80;99.90
11838;DHT22;5978;51.020;6.764;2023-05-17T03:37:13;8.80;99.90
11838;DHT22;5978;51.020;6.764;2023-05-17T03:39:38;8.80;99.90
11838;DHT22;5978;51.020;6.764;2023-05-17T03:42:05;8.70;99.90
11838;DHT22;5978;51.020;6.764;2023-05-17T03:44:30;8.80;99.90
11838;DHT22;5978;51.020;6.764;2023-05-17T03:46:56;8.80;99.90
11838;DHT22;5978;51.020;6.764;2023-05-17T03:49:22;8.80;99.90
11838;DHT22;5978;51.020;6.764;2023-05-17T03:51:47;8.80;99.90
11838;DHT22;5978;51.020;6.764;2023-05-17T03:54:13;8.80;99.90
11838;DHT22;5978;51.020;6.764;2023-05-17T03:56:38;8.80;99.90
11838;DHT22;5978;51.020;6.764;2023-05-17T03:59:04;8.80;99.90
11838;DHT22;5978;51.020;6.764;2023-05-17T04:01:30;8.80;99.90
11838;DHT22;5978;51.020;6.764;2023-05-17T04:03:56;8.80;99.90
11838;DHT22;5978;51.020;6.764;2023-05-17T04:06:21;8.90;99.90
11838;DHT22;5978;51.020;6.764;2023-05-17T04:08:47;8.90;99.90
11838;DHT22;5978;51.020;6.764;2023-05-17T04:11:13;8.90;99.90
11838;DHT22;5978;51.020;6.764;2023-05-17T04:13:40;8.90;99.90
11838;DHT22;5978;51.020;6.764;2023-05-17T04:16:07;9.00;99.90
11838;DHT22;5978;51.020;6.764;2023-05-17T04:18:34;9.10;99.90
11838;DHT22;5978;51.020;6.764;2023-05-17T04:21:01;9.30;99.90
11838;DHT22;5978;51.020;6.764;2023-05-17T04:23:26;9.30;99.90
11838;DHT22;5978;51.020;6.764;2023-05-17T04:25:52;9.50;99.90
11838;DHT22;5978;51.020;6.764;2023-05-17T04:28:18;9.50;99.90
11838;DHT22;5978;51.020;6.764;2023-05-17T04:30:45;9.60;99.90
11838;DHT22;5978;51.020;6.764;2023-05-17T04:33:12;9.70;99.90
11838;DHT22;5978;51.020;6.764;2023-05-17T04:35:40;9.90;99.90
11838;DHT22;5978;51.020;6.764;2023-05-17T04:38:06;9.90;99.90
11838;DHT22;5978;51.020;6.764;2023-05-17T04:40:32;10.00;99.90
11838;DHT22;5978;51.020;6.764;2023-05-17T04:42:58;10.00;99.90
11838;DHT22;5978;51.020;6.764;2023-05-17T04:45:24;10.10;99.90
11838;DHT22;5978;51.020;6.764;2023-05-17T04:47:49;10.10;99.90
11838;DHT22;5978;51.020;6.764;2023-05-17T04:50:16;10.10;99.90
11838;DHT22;5978;51.020;6.764;2023-05-17T04:52:42;10.20;99.90
11838;DHT22;5978;51.020;6.764;2023-05-17T04:55:08;10.30;99.90
11838;DHT22;5978;51.020;6.764;2023-05-17T04:57:34;10.30;99.90
11838;DHT22;5978;51.020;6.764;2023-05-17T05:00:02;10.20;99.90
11838;DHT22;5978;51.020;6.764;2023-05-17T05:02:32;10.10;99.90
11838;DHT22;5978;51.020;6.764;2023-05-17T05:04:58;10.10;99.90
11838;DHT22;5978;51.020;6.764;2023-05-17T05:07:23;10.10;99.90
11838;DHT22;5978;51.020;6.764;2023-05-17T05:09:49;10.20;99.90
11838;DHT22;5978;51.020;6.764;2023-05-17T05:12:15;10.30;99.90
11838;DHT22;5978;51.020;6.764;2023-05-17T05:14:41;10.40;99.90
11838;DHT22;5978;51.020;6.764;2023-05-17T05:17:07;10.60;99.90
11838;DHT22;5978;51.020;6.764;2023-05-17T05:19:33;10.70;99.90
11838;DHT22;5978;51.020;6.764;2023-05-17T05:21:59;10.80;99.90
11838;DHT22;5978;51.020;6.764;2023-05-17T05:24:25;10.70;99.90
11838;DHT22;5978;51.020;6.764;2023-05-17T05:26:51;10.80;99.90
11838;DHT22;5978;51.020;6.764;2023-05-17T05:29:17;10.90;99.90
11838;DHT22;5978;51.020;6.764;2023-05-17T05:31:43;11.00;99.90
11838;DHT22;5978;51.020;6.764;2023-05-17T05:34:09;11.00;99.90
11838;DHT22;5978;51.020;6.764;2023-05-17T05:36:35;11.00;99.90
11838;DHT22;5978;51.020;6.764;2023-05-17T05:39:01;11.10;99.90
11838;DHT22;5978;51.020;6.764;2023-05-17T05:41:27;11.10;99.90
11838;DHT22;5978;51.020;6.764;2023-05-17T05:43:53;11.00;99.90
11838;DHT22;5978;51.020;6.764;2023-05-17T05:46:18;11.00;99.90
11838;DHT22;5978;51.020;6.764;2023-05-17T05:48:44;10.90;99.90
11838;DHT22;5978;51.020;6.764;2023-05-17T05:51:09;10.90;99.90
11838;DHT22;5978;51.020;6.764;2023-05-17T05:53:35;10.80;99.90
11838;DHT22;5978;51.020;6.764;2023-05-17T05:56:01;10.90;99.90
11838;DHT22;5978;51.020;6.764;2023-05-17T05:58:28;10.90;99.90
11838;DHT22;5978;51.020;6.764;2023-05-17T06:00:54;10.90;99.90
11838;DHT22;5978;51.020;6.764;2023-05-17T06:03:21;11.00;99.90
11838;DHT22;5978;51.020;6.764;2023-05-17T06:05:47;11.20;99.90
11838;DHT22;5978;51.020;6.764;2023-05-17T06:08:13;11.20;99.90
11838;DHT22;5978;51.020;6.764;2023-05-17T06:10:38;11.30;99.90
11838;DHT22;5978;51.020;6.764;2023-05-17T06:13:04;11.50;99.90
11838;DHT22;5978;51.020;6.764;2023-05-17T06:15:30;11.60;99.90
11838;DHT22;5978;51.020;6.764;2023-05-17T06:17:56;11.80;99.90
11838;DHT22;5978;51.020;6.764;2023-05-17T06:20:22;11.90;99.90
11838;DHT22;5978;51.020;6.764;2023-05-17T06:22:47;12.10;99.90
11838;DHT22;5978;51.020;6.764;2023-05-17T06:25:13;12.30;99.90
11838;DHT22;5978;51.020;6.764;2023-05-17T06:27:38;12.50;99.90
11838;DHT22;5978;51.020;6.764;2023-05-17T06:30:05;12.60;99.90
11838;DHT22;5978;51.020;6.764;2023-05-17T06:32:31;12.60;99.90
11838;DHT22;5978;51.020;6.764;2023-05-17T06:34:56;12.90;99.90
11838;DHT22;5978;51.020;6.764;2023-05-17T06:37:22;13.10;99.90
11838;DHT22;5978;51.020;6.764;2023-05-17T06:39:50;13.30;99.90
11838;DHT22;5978;51.020;6.764;2023-05-17T06:42:16;13.40;99.90
11838;DHT22;5978;51.020;6.764;2023-05-17T06:44:42;13.50;99.90
11838;DHT22;5978;51.020;6.764;2023-05-17T06:47:07;13.60;99.90
11838;DHT22;5978;51.020;6.764;2023-05-17T06:49:33;13.70;99.90
11838;DHT22;5978;51.020;6.764;2023-05-17T06:51:59;13.70;99.90
11838;DHT22;5978;51.020;6.764;2023-05-17T06:54:28;13.50;99.90
11838;DHT22;5978;51.020;6.764;2023-05-17T06:56:58;13.40;99.90
11838;DHT22;5978;51.020;6.764;2023-05-17T06:59:24;13.60;99.90
11838;DHT22;5978;51.020;6.764;2023-05-17T07:01:50;13.80;99.90
11838;DHT22;5978;51.020;6.764;2023-05-17T07:04:16;14.10;99.90
11838;DHT22;5978;51.020;6.764;2023-05-17T07:06:41;14.20;99.90
11838;DHT22;5978;51.020;6.764;2023-05-17T07:09:07;14.40;99.90
11838;DHT22;5978;51.020;6.764;2023-05-17T07:11:33;14.70;99.90
11838;DHT22;5978;51.020;6.764;2023-05-17T07:13:59;14.50;99.90
11838;DHT22;5978;51.020;6.764;2023-05-17T07:16:24;14.50;99.90
11838;DHT22;5978;51.020;6.764;2023-05-17T07:18:50;14.50;99.90
11838;DHT22;5978;51.020;6.764;2023-05-17T07:21:16;14.80;99.90
11838;DHT22;5978;51.020;6.764;2023-05-17T07:23:41;15.00;99.90
11838;DHT22;5978;51.020;6.764;2023-05-17T07:26:07;15.00;99.90
11838;DHT22;5978;51.020;6.764;2023-05-17T07:28:32;14.80;99.90
11838;DHT22;5978;51.020;6.764;2023-05-17T07:30:58;14.40;99.90
11838;DHT22;5978;51.020;6.764;2023-05-17T07:33:24;14.20;99.90
11838;DHT22;5978;51.020;6.764;2023-05-17T07:35:50;14.40;99.90
11838;DHT22;5978;51.020;6.764;2023-05-17T07:38:15;14.30;99.90
11838;DHT22;5978;51.020;6.764;2023-05-17T07:40:41;14.40;99.90
11838;DHT22;5978;51.020;6.764;2023-05-17T07:43:07;14.30;99.90
11838;DHT22;5978;51.020;6.764;2023-05-17T07:45:33;14.60;99.90
11838;DHT22;5978;51.020;6.764;2023-05-17T07:47:58;14.70;99.90
11838;DHT22;5978;51.020;6.764;2023-05-17T07:50:24;14.90;99.90
11838;DHT22;5978;51.020;6.764;2023-05-17T07:52:50;15.10;99.90
11838;DHT22;5978;51.020;6.764;2023-05-17T07:55:16;15.20;99.90
11838;DHT22;5978;51.020;6.764;2023-05-17T07:57:41;15.10;99.90
11838;DHT22;5978;51.020;6.764;2023-05-17T08:00:08;15.30;99.90
11838;DHT22;5978;51.020;6.764;2023-05-17T08:02:37;15.30;99.90
11838;DHT22;5978;51.020;6.764;2023-05-17T08:05:03;15.00;99.90
11838;DHT22;5978;51.020;6.764;2023-05-17T08:07:29;14.80;99.90
11838;DHT22;5978;51.020;6.764;2023-05-17T08:09:54;14.90;99.90
11838;DHT22;5978;51.020;6.764;2023-05-17T08:12:20;14.80;99.90
11838;DHT22;5978;51.020;6.764;2023-05-17T08:14:45;14.80;99.90
11838;DHT22;5978;51.020;6.764;2023-05-17T08:17:11;15.00;99.90
11838;DHT22;5978;51.020;6.764;2023-05-17T08:19:37;15.10;99.90
11838;DHT22;5978;51.020;6.764;2023-05-17T08:22:03;15.30;99.90
11838;DHT22;5978;51.020;6.764;2023-05-17T08:24:29;15.70;97.30
11838;DHT22;5978;51.020;6.764;2023-05-17T08:26:55;15.20;94.90
11838;DHT22;5978;51.020;6.764;2023-05-17T08:29:21;15.20;99.90
11838;DHT22;5978;51.020;6.764;2023-05-17T08:31:47;15.00;99.90
11838;DHT22;5978;51.020;6.764;2023-05-17T08:34:12;15.20;99.90
11838;DHT22;5978;51.020;6.764;2023-05-17T08:36:38;15.40;99.60
11838;DHT22;5978;51.020;6.764;2023-05-17T08:39:03;15.30;99.90
11838;DHT22;5978;51.020;6.764;2023-05-17T08:41:29;15.20;99.90
11838;DHT22;5978;51.020;6.764;2023-05-17T08:43:55;15.10;99.90
11838;DHT22;5978;51.020;6.764;2023-05-17T08:46:24;15.20;99.90
11838;DHT22;5978;51.020;6.764;2023-05-17T08:48:52;15.50;99.90
11838;DHT22;5978;51.020;6.764;2023-05-17T08:51:18;15.30;99.90
11838;DHT22;5978;51.020;6.764;2023-05-17T08:53:45;15.30;97.10
11838;DHT22;5978;51.020;6.764;2023-05-17T08:56:12;15.20;99.90
11838;DHT22;5978;51.020;6.764;2023-05-17T08:58:41;15.20;96.10
11838;DHT22;5978;51.020;6.764;2023-05-17T09:01:07;14.90;97.90
11838;DHT22;5978;51.020;6.764;2023-05-17T09:03:34;14.80;99.50
11838;DHT22;5978;51.020;6.764;2023-05-17T09:06:00;14.80;99.90
11838;DHT22;5978;51.020;6.764;2023-05-17T09:08:27;14.80;99.90
11838;DHT22;5978;51.020;6.764;2023-05-17T09:10:55;15.00;99.90
11838;DHT22;5978;51.020;6.764;2023-05-17T09:13:24;15.40;97.00
11838;DHT22;5978;51.020;6.764;2023-05-17T09:15:50;15.70;99.90
11838;DHT22;5978;51.020;6.764;2023-05-17T09:18:16;16.10;95.20
11838;DHT22;5978;51.020;6.764;2023-05-17T09:20:42;16.30;92.50
11838;DHT22;5978;51.020;6.764;2023-05-17T09:23:14;16.50;96.30
11838;DHT22;5978;51.020;6.764;2023-05-17T09:25:47;16.40;90.40
11838;DHT22;5978;51.020;6.764;2023-05-17T09:28:12;15.80;90.90
11838;DHT22;5978;51.020;6.764;2023-05-17T09:30:38;15.80;95.40
11838;DHT22;5978;51.020;6.764;2023-05-17T09:33:10;16.30;91.90
11838;DHT22;5978;51.020;6.764;2023-05-17T09:35:37;16.40;87.80
11838;DHT22;5978;51.020;6.764;2023-05-17T09:40:32;16.60;83.70
11838;DHT22;5978;51.020;6.764;2023-05-17T09:42:58;16.80;78.50
11838;DHT22;5978;51.020;6.764;2023-05-17T09:45:25;17.30;81.80
11838;DHT22;5978;51.020;6.764;2023-05-17T09:47:51;17.50;74.20
11838;DHT22;5978;51.020;6.764;2023-05-17T09:50:20;17.80;76.50
11838;DHT22;5978;51.020;6.764;2023-05-17T09:52:47;17.60;81.00
11838;DHT22;5978;51.020;6.764;2023-05-17T09:55:13;17.40;86.60
11838;DHT22;5978;51.020;6.764;2023-05-17T09:57:40;17.40;85.80
11838;DHT22;5978;51.020;6.764;2023-05-17T10:00:07;17.20;80.20
11838;DHT22;5978;51.020;6.764;2023-05-17T10:02:37;17.00;79.80
11838;DHT22;5978;51.020;6.764;2023-05-17T10:05:04;17.20;79.30
11838;DHT22;5978;51.020;6.764;2023-05-17T10:07:31;17.30;74.00
11838;DHT22;5978;51.020;6.764;2023-05-17T10:09:57;17.30;72.70
11838;DHT22;5978;51.020;6.764;2023-05-17T10:12:26;17.60;75.50
11838;DHT22;5978;51.020;6.764;2023-05-17T10:14:52;17.80;71.60
11838;DHT22;5978;51.020;6.764;2023-05-17T10:17:20;17.40;68.60
11838;DHT22;5978;51.020;6.764;2023-05-17T10:19:46;17.40;69.30
11838;DHT22;5978;51.020;6.764;2023-05-17T10:22:13;17.50;72.10
11838;DHT22;5978;51.020;6.764;2023-05-17T10:24:42;17.50;76.40
11838;DHT22;5978;51.020;6.764;2023-05-17T10:27:08;17.30;75.00
11838;DHT22;5978;51.020;6.764;2023-05-17T10:29:36;17.60;79.10
11838;DHT22;5978;51.020;6.764;2023-05-17T10:32:04;17.90;76.90
11838;DHT22;5978;51.020;6.764;2023-05-17T10:34:33;18.20;78.50
11838;DHT22;5978;51.020;6.764;2023-05-17T10:37:00;18.30;72.20
11838;DHT22;5978;51.020;6.764;2023-05-17T10:39:27;18.30;76.00
11838;DHT22;5978;51.020;6.764;2023-05-17T10:41:55;17.90;67.60
11838;DHT22;5978;51.020;6.764;2023-05-17T10:44:22;17.80;71.50
11838;DHT22;5978;51.020;6.764;2023-05-17T10:46:53;18.10;70.40
11838;DHT22;5978;51.020;6.764;2023-05-17T10:49:19;18.60;70.40
11838;DHT22;5978;51.020;6.764;2023-05-17T10:51:45;18.60;66.30
11838;DHT22;5978;51.020;6.764;2023-05-17T10:54:12;18.20;63.80
11838;DHT22;5978;51.020;6.764;2023-05-17T10:56:51;18.30;65.90
11838;DHT22;5978;51.020;6.764;2023-05-17T10:59:24;18.70;64.60
11838;DHT22;5978;51.020;6.764;2023-05-17T11:02:04;19.50;68.40
11838;DHT22;5978;51.020;6.764;2023-05-17T11:04:39;19.70;66.90
11838;DHT22;5978;51.020;6.764;2023-05-17T11:10:01;20.40;63.00
11838;DHT22;5978;51.020;6.764;2023-05-17T11:12:37;20.50;59.60
11838;DHT22;5978;51.020;6.764;2023-05-17T11:17:48;21.30;59.50
11838;DHT22;5978;51.020;6.764;2023-05-17T11:23:03;20.60;55.10
11838;DHT22;5978;51.020;6.764;2023-05-17T11:25:35;20.20;55.60
11838;DHT22;5978;51.020;6.764;2023-05-17T11:28:16;20.80;57.70
11838;DHT22;5978;51.020;6.764;2023-05-17T11:30:42;21.60;56.80
11838;DHT22;5978;51.020;6.764;2023-05-17T11:33:15;22.00;57.60
11838;DHT22;5978;51.020;6.764;2023-05-17T11:35:41;22.90;57.80
11838;DHT22;5978;51.020;6.764;2023-05-17T11:38:26;22.10;55.20
11838;DHT22;5978;51.020;6.764;2023-05-17T11:40:55;21.80;56.90
11838;DHT22;5978;51.020;6.764;2023-05-17T11:43:23;21.60;56.80
11838;DHT22;5978;51.020;6.764;2023-05-17T11:45:53;21.00;55.90
11838;DHT22;5978;51.020;6.764;2023-05-17T11:48:21;21.00;57.80
11838;DHT22;5978;51.020;6.764;2023-05-17T11:50:48;21.90;55.20
11838;DHT22;5978;51.020;6.764;2023-05-17T11:53:18;22.40;54.40
11838;DHT22;5978;51.020;6.764;2023-05-17T11:55:48;22.30;51.80
11838;DHT22;5978;51.020;6.764;2023-05-17T11:58:19;22.20;49.90
11838;DHT22;5978;51.020;6.764;2023-05-17T12:00:52;22.20;50.50
11838;DHT22;5978;51.020;6.764;2023-05-17T12:03:19;21.40;51.90
11838;DHT22;5978;51.020;6.764;2023-05-17T12:05:47;21.10;55.00
11838;DHT22;5978;51.020;6.764;2023-05-17T12:08:17;21.40;55.90
11838;DHT22;5978;51.020;6.764;2023-05-17T12:10:49;22.30;54.40
11838;DHT22;5978;51.020;6.764;2023-05-17T12:13:16;23.30;56.30
11838;DHT22;5978;51.020;6.764;2023-05-17T12:16:12;24.60;53.20
11838;DHT22;5978;51.020;6.764;2023-05-17T12:18:39;24.60;50.00
11838;DHT22;5978;51.020;6.764;2023-05-17T12:21:06;25.40;49.70
11838;DHT22;5978;51.020;6.764;2023-05-17T12:23:36;26.20;47.40
11838;DHT22;5978;51.020;6.764;2023-05-17T12:26:08;26.10;47.20
11838;DHT22;5978;51.020;6.764;2023-05-17T12:28:36;25.70;46.00
11838;DHT22;5978;51.020;6.764;2023-05-17T12:31:03;22.80;46.20
11838;DHT22;5978;51.020;6.764;2023-05-17T12:33:35;22.00;49.90
11838;DHT22;5978;51.020;6.764;2023-05-17T12:36:02;23.10;51.50
11838;DHT22;5978;51.020;6.764;2023-05-17T12:38:32;25.30;51.90
11838;DHT22;5978;51.020;6.764;2023-05-17T12:41:02;27.00;50.10
11838;DHT22;5978;51.020;6.764;2023-05-17T12:43:29;27.10;45.80
11838;DHT22;5978;51.020;6.764;2023-05-17T12:46:12;27.10;45.40
11838;DHT22;5978;51.020;6.764;2023-05-17T12:48:39;26.60;44.20
11838;DHT22;5978;51.020;6.764;2023-05-17T12:51:12;26.60;44.60
11838;DHT22;5978;51.020;6.764;2023-05-17T12:56:13;26.00;46.40
11838;DHT22;5978;51.020;6.764;2023-05-17T12:58:39;24.80;46.90
11838;DHT22;5978;51.020;6.764;2023-05-17T13:01:04;23.40;47.00
11838;DHT22;5978;51.020;6.764;2023-05-17T13:03:41;22.00;48.70
11838;DHT22;5978;51.020;6.764;2023-05-17T13:06:15;22.90;50.70
11838;DHT22;5978;51.020;6.764;2023-05-17T13:08:41;24.40;50.00
11838;DHT22;5978;51.020;6.764;2023-05-17T13:11:12;25.30;49.00
11838;DHT22;5978;51.020;6.764;2023-05-17T13:13:39;25.60;47.40
11838;DHT22;5978;51.020;6.764;2023-05-17T13:16:06;26.30;46.40
11838;DHT22;5978;51.020;6.764;2023-05-17T13:18:46;27.60;45.50
11838;DHT22;5978;51.020;6.764;2023-05-17T13:21:12;27.90;45.00
11838;DHT22;5978;51.020;6.764;2023-05-17T13:23:47;29.40;45.80
11838;DHT22;5978;51.020;6.764;2023-05-17T13:26:13;30.10;43.50
11838;DHT22;5978;51.020;6.764;2023-05-17T13:28:39;28.90;41.50
11838;DHT22;5978;51.020;6.764;2023-05-17T13:31:05;26.90;43.10
11838;DHT22;5978;51.020;6.764;2023-05-17T13:33:31;27.40;44.30
11838;DHT22;5978;51.020;6.764;2023-05-17T13:35:57;28.30;43.80
11838;DHT22;5978;51.020;6.764;2023-05-17T13:38:23;29.50;43.60
11838;DHT22;5978;51.020;6.764;2023-05-17T13:40:49;30.50;41.50
11838;DHT22;5978;51.020;6.764;2023-05-17T13:43:15;30.00;40.00
11838;DHT22;5978;51.020;6.764;2023-05-17T13:45:41;29.40;40.20
11838;DHT22;5978;51.020;6.764;2023-05-17T13:48:07;29.90;41.90
11838;DHT22;5978;51.020;6.764;2023-05-17T13:50:33;30.50;40.80
11838;DHT22;5978;51.020;6.764;2023-05-17T13:52:59;30.20;38.00
11838;DHT22;5978;51.020;6.764;2023-05-17T13:55:26;29.60;38.70
11838;DHT22;5978;51.020;6.764;2023-05-17T13:57:52;30.00;40.60
11838;DHT22;5978;51.020;6.764;2023-05-17T14:00:19;30.20;40.20
11838;DHT22;5978;51.020;6.764;2023-05-17T14:02:45;30.80;40.60
11838;DHT22;5978;51.020;6.764;2023-05-17T14:05:11;31.60;40.10
11838;DHT22;5978;51.020;6.764;2023-05-17T14:07:36;31.10;39.10
11838;DHT22;5978;51.020;6.764;2023-05-17T14:10:08;30.40;37.40
11838;DHT22;5978;51.020;6.764;2023-05-17T14:12:34;30.50;38.80
11838;DHT22;5978;51.020;6.764;2023-05-17T14:15:00;30.70;39.10
11838;DHT22;5978;51.020;6.764;2023-05-17T14:17:26;31.40;39.30
11838;DHT22;5978;51.020;6.764;2023-05-17T14:19:51;31.70;39.20
11838;DHT22;5978;51.020;6.764;2023-05-17T14:22:17;32.50;39.20
11838;DHT22;5978;51.020;6.764;2023-05-17T14:24:43;33.00;38.00
11838;DHT22;5978;51.020;6.764;2023-05-17T14:27:08;32.20;36.70
11838;DHT22;5978;51.020;6.764;2023-05-17T14:29:34;31.00;37.00
11838;DHT22;5978;51.020;6.764;2023-05-17T14:32:00;30.10;37.10
11838;DHT22;5978;51.020;6.764;2023-05-17T14:34:25;30.40;37.80
11838;DHT22;5978;51.020;6.764;2023-05-17T14:36:51;31.30;37.50
11838;DHT22;5978;51.020;6.764;2023-05-17T14:39:17;31.70;37.40
11838;DHT22;5978;51.020;6.764;2023-05-17T14:41:42;32.00;37.70
11838;DHT22;5978;51.020;6.764;2023-05-17T14:44:08;32.00;37.10
11838;DHT22;5978;51.020;6.764;2023-05-17T14:46:34;32.10;37.50
11838;DHT22;5978;51.020;6.764;2023-05-17T14:49:00;32.40;37.90
11838;DHT22;5978;51.020;6.764;2023-05-17T14:51:26;32.10;36.90
11838;DHT22;5978;51.020;6.764;2023-05-17T14:53:51;32.70;37.30
11838;DHT22;5978;51.020;6.764;2023-05-17T14:56:18;33.20;36.40
11838;DHT22;5978;51.020;6.764;2023-05-17T14:58:44;33.30;36.50
11838;DHT22;5978;51.020;6.764;2023-05-17T15:01:09;32.70;37.30
11838;DHT22;5978;51.020;6.764;2023-05-17T15:03:35;32.70;36.40
11838;DHT22;5978;51.020;6.764;2023-05-17T15:06:01;31.80;36.90
11838;DHT22;5978;51.020;6.764;2023-05-17T15:08:27;32.00;36.70
11838;DHT22;5978;51.020;6.764;2023-05-17T15:10:53;30.20;36.40
11838;DHT22;5978;51.020;6.764;2023-05-17T15:13:19;30.40;37.90
11838;DHT22;5978;51.020;6.764;2023-05-17T15:15:45;31.30;38.40
11838;DHT22;5978;51.020;6.764;2023-05-17T15:18:14;32.00;37.80
11838;DHT22;5978;51.020;6.764;2023-05-17T15:20:40;32.40;38.60
11838;DHT22;5978;51.020;6.764;2023-05-17T15:23:06;33.00;37.00
11838;DHT22;5978;51.020;6.764;2023-05-17T15:25:32;33.10;37.20
11838;DHT22;5978;51.020;6.764;2023-05-17T15:27:57;32.90;36.90
11838;DHT22;5978;51.020;6.764;2023-05-17T15:30:23;31.80;36.00
11838;DHT22;5978;51.020;6.764;2023-05-17T15:32:56;30.90;37.00
11838;DHT22;5978;51.020;6.764;2023-05-17T15:35:22;30.70;37.80
11838;DHT22;5978;51.020;6.764;2023-05-17T15:37:50;28.90;37.60
11838;DHT22;5978;51.020;6.764;2023-05-17T15:40:15;26.90;38.80
11838;DHT22;5978;51.020;6.764;2023-05-17T15:42:42;24.80;40.00
11838;DHT22;5978;51.020;6.764;2023-05-17T15:45:08;24.00;41.90
11838;DHT22;5978;51.020;6.764;2023-05-17T15:47:33;23.30;43.40
11838;DHT22;5978;51.020;6.764;2023-05-17T15:49:59;22.50;44.00
11838;DHT22;5978;51.020;6.764;2023-05-17T15:52:25;22.20;45.40
11838;DHT22;5978;51.020;6.764;2023-05-17T15:54:51;21.90;46.20
11838;DHT22;5978;51.020;6.764;2023-05-17T15:57:18;21.40;46.90
11838;DHT22;5978;51.020;6.764;2023-05-17T15:59:44;20.80;47.20
11838;DHT22;5978;51.020;6.764;2023-05-17T16:02:11;20.30;47.90
11838;DHT22;5978;51.020;6.764;2023-05-17T16:04:37;19.70;47.50
11838;DHT22;5978;51.020;6.764;2023-05-17T16:07:03;19.50;48.00
11838;DHT22;5978;51.020;6.764;2023-05-17T16:09:29;19.40;48.70
11838;DHT22;5978;51.020;6.764;2023-05-17T16:11:54;19.00;49.50